EZY18MP EGLC-EGPH
Flight info
| Callsign | EZY18MP |
|---|---|
| Flight time | 0h 54m |
| Altitude | 32000 |
| Route | EGLC/09 BPK UN601 RIBEL DCT INPIP |
| Aircraft | A320/M-SDE3FGHIRWY/LB1 |
Departure
| Time | 2026-04-24 15:51 |
|---|---|
| Airport | London City Airport (EGLC) |
Arrival
| Time | 2026-04-24 16:45 |
|---|---|
| Airport | Edinburgh Airport (EGPH) |
| Time | Latitude | Longitude | Altitude | Speed | Heading |
|---|---|---|---|---|---|
| 2026-04-24 15:31 | 51.50410 | 0.05146 | 25 ft | 0 kts | 183° |
| 2026-04-24 15:44 | 51.50416 | 0.05146 | 24 ft | 1 kts | 157° |
| 2026-04-24 15:44 | 51.50429 | 0.05136 | 24 ft | 2 kts | 163° |
| 2026-04-24 15:45 | 51.50441 | 0.05130 | 24 ft | 0 kts | 161° |
| 2026-04-24 15:45 | 51.50446 | 0.05127 | 24 ft | 0 kts | 200° |
| 2026-04-24 15:45 | 51.50450 | 0.05132 | 24 ft | 0 kts | 253° |
| 2026-04-24 15:45 | 51.50450 | 0.05140 | 24 ft | 1 kts | 285° |
| 2026-04-24 15:46 | 51.50449 | 0.05147 | 24 ft | 0 kts | 276° |
| 2026-04-24 15:49 | 51.50453 | 0.05088 | 24 ft | 8 kts | 277° |
| 2026-04-24 15:49 | 51.50462 | 0.04959 | 24 ft | 15 kts | 274° |
| 2026-04-24 15:49 | 51.50469 | 0.04741 | 24 ft | 21 kts | 272° |
| 2026-04-24 15:49 | 51.50476 | 0.04525 | 25 ft | 11 kts | 274° |
| 2026-04-24 15:50 | 51.50494 | 0.04455 | 25 ft | 6 kts | 323° |
| 2026-04-24 15:50 | 51.50538 | 0.04457 | 25 ft | 7 kts | 45° |
| 2026-04-24 15:50 | 51.50553 | 0.04539 | 24 ft | 8 kts | 89° |
| 2026-04-24 15:50 | 51.50552 | 0.04591 | 24 ft | 18 kts | 93° |
| 2026-04-24 15:51 | 51.50531 | 0.05252 | 25 ft | 96 kts | 93° |
| 2026-04-24 15:51 | 51.50486 | 0.06659 | 63 ft | 150 kts | 93° |
| 2026-04-24 15:51 | 51.50417 | 0.08424 | 526 ft | 161 kts | 93° |
| 2026-04-24 15:51 | 51.50499 | 0.10127 | 1280 ft | 156 kts | 63° |
| 2026-04-24 15:52 | 51.51300 | 0.11192 | 1910 ft | 158 kts | 9° |
| 2026-04-24 15:52 | 51.52393 | 0.10872 | 2352 ft | 171 kts | 334° |
| 2026-04-24 15:52 | 51.53505 | 0.09951 | 2676 ft | 196 kts | 332° |
| 2026-04-24 15:52 | 51.54809 | 0.08863 | 2707 ft | 219 kts | 333° |
| 2026-04-24 15:53 | 51.56179 | 0.07761 | 2705 ft | 222 kts | 333° |
| 2026-04-24 15:53 | 51.57571 | 0.06663 | 2704 ft | 222 kts | 333° |
| 2026-04-24 15:53 | 51.58939 | 0.05416 | 2710 ft | 232 kts | 328° |
| 2026-04-24 15:53 | 51.60384 | 0.03982 | 2712 ft | 255 kts | 328° |
| 2026-04-24 15:54 | 51.61889 | 0.02470 | 2707 ft | 259 kts | 328° |
| 2026-04-24 15:54 | 51.63426 | 0.00925 | 2705 ft | 259 kts | 328° |
| 2026-04-24 15:54 | 51.64946 | -0.00601 | 2796 ft | 259 kts | 328° |
| 2026-04-24 15:54 | 51.66515 | -0.02175 | 3272 ft | 270 kts | 328° |
| 2026-04-24 15:55 | 51.68088 | -0.03753 | 4362 ft | 268 kts | 328° |
| 2026-04-24 15:55 | 51.69653 | -0.05324 | 5371 ft | 269 kts | 328° |
| 2026-04-24 15:55 | 51.71233 | -0.06912 | 6291 ft | 273 kts | 328° |
| 2026-04-24 15:55 | 51.72863 | -0.08550 | 7223 ft | 277 kts | 328° |
| 2026-04-24 15:56 | 51.74479 | -0.10176 | 8122 ft | 281 kts | 328° |
| 2026-04-24 15:56 | 51.76166 | -0.11836 | 9020 ft | 284 kts | 329° |
| 2026-04-24 15:56 | 51.77868 | -0.13451 | 9885 ft | 288 kts | 330° |
| 2026-04-24 15:56 | 51.79603 | -0.15087 | 10650 ft | 295 kts | 330° |
| 2026-04-24 15:57 | 51.81417 | -0.16803 | 11106 ft | 313 kts | 329° |
| 2026-04-24 15:57 | 51.83338 | -0.18627 | 11631 ft | 326 kts | 329° |
| 2026-04-24 15:57 | 51.85316 | -0.20509 | 12427 ft | 331 kts | 329° |
| 2026-04-24 15:57 | 51.87283 | -0.22384 | 13226 ft | 334 kts | 329° |
| 2026-04-24 15:58 | 51.89308 | -0.24319 | 14005 ft | 338 kts | 329° |
| 2026-04-24 15:58 | 51.91320 | -0.26242 | 14751 ft | 342 kts | 329° |
| 2026-04-24 15:58 | 51.93362 | -0.28197 | 15485 ft | 345 kts | 329° |
| 2026-04-24 15:58 | 51.95449 | -0.30196 | 16209 ft | 349 kts | 329° |
| 2026-04-24 15:59 | 51.97545 | -0.32207 | 16912 ft | 353 kts | 329° |
| 2026-04-24 15:59 | 51.99654 | -0.34234 | 17595 ft | 356 kts | 329° |
| 2026-04-24 15:59 | 52.01790 | -0.36287 | 18264 ft | 360 kts | 329° |
| 2026-04-24 15:59 | 52.03923 | -0.38341 | 18909 ft | 364 kts | 329° |
| 2026-04-24 16:00 | 52.06096 | -0.40436 | 19545 ft | 367 kts | 329° |
| 2026-04-24 16:00 | 52.08315 | -0.42577 | 20173 ft | 371 kts | 329° |
| 2026-04-24 16:00 | 52.10547 | -0.44731 | 20784 ft | 374 kts | 329° |
| 2026-04-24 16:00 | 52.12785 | -0.46896 | 21377 ft | 378 kts | 329° |
| 2026-04-24 16:01 | 52.15042 | -0.49080 | 21956 ft | 381 kts | 329° |
| 2026-04-24 16:01 | 52.17321 | -0.51290 | 22523 ft | 384 kts | 329° |
| 2026-04-24 16:01 | 52.19605 | -0.53507 | 23069 ft | 387 kts | 329° |
| 2026-04-24 16:01 | 52.21948 | -0.55783 | 23610 ft | 391 kts | 329° |
| 2026-04-24 16:02 | 52.24268 | -0.58040 | 24129 ft | 394 kts | 329° |
| 2026-04-24 16:02 | 52.26604 | -0.60315 | 24632 ft | 397 kts | 329° |
| 2026-04-24 16:02 | 52.28986 | -0.62639 | 25127 ft | 400 kts | 329° |
| 2026-04-24 16:02 | 52.31376 | -0.64973 | 25605 ft | 403 kts | 329° |
| 2026-04-24 16:03 | 52.33783 | -0.67328 | 26070 ft | 406 kts | 329° |
| 2026-04-24 16:03 | 52.36229 | -0.69724 | 26525 ft | 409 kts | 329° |
| 2026-04-24 16:03 | 52.38672 | -0.72118 | 26961 ft | 412 kts | 329° |
| 2026-04-24 16:03 | 52.41100 | -0.74501 | 27379 ft | 414 kts | 329° |
| 2026-04-24 16:04 | 52.43600 | -0.76957 | 27797 ft | 417 kts | 329° |
| 2026-04-24 16:04 | 52.46098 | -0.79416 | 28201 ft | 420 kts | 329° |
| 2026-04-24 16:04 | 52.48576 | -0.81858 | 28612 ft | 422 kts | 329° |
| 2026-04-24 16:04 | 52.51065 | -0.84315 | 29132 ft | 420 kts | 329° |
| 2026-04-24 16:05 | 52.56045 | -0.89241 | 30179 ft | 417 kts | 329° |
| 2026-04-24 16:05 | 52.58531 | -0.91705 | 30632 ft | 417 kts | 329° |
| 2026-04-24 16:06 | 52.63497 | -0.96636 | 31367 ft | 421 kts | 329° |
| 2026-04-24 16:06 | 52.65998 | -0.99123 | 31721 ft | 422 kts | 329° |
| 2026-04-24 16:06 | 52.71060 | -1.04171 | 31998 ft | 426 kts | 329° |
| 2026-04-24 16:07 | 52.73591 | -1.06699 | 32001 ft | 426 kts | 329° |
| 2026-04-24 16:07 | 52.81166 | -1.14285 | 32003 ft | 426 kts | 329° |
| 2026-04-24 16:08 | 52.88737 | -1.21901 | 32003 ft | 426 kts | 329° |
| 2026-04-24 16:09 | 52.96302 | -1.29547 | 32003 ft | 426 kts | 329° |
| 2026-04-24 16:09 | 53.01331 | -1.34641 | 32003 ft | 426 kts | 329° |
| 2026-04-24 16:11 | 53.13926 | -1.47469 | 32003 ft | 426 kts | 329° |
| 2026-04-24 16:11 | 53.18997 | -1.52660 | 32003 ft | 426 kts | 329° |
| 2026-04-24 16:12 | 53.26542 | -1.60414 | 32003 ft | 426 kts | 329° |
| 2026-04-24 16:13 | 53.34097 | -1.68205 | 32003 ft | 426 kts | 328° |
| 2026-04-24 16:14 | 53.44144 | -1.78622 | 32003 ft | 426 kts | 328° |
| 2026-04-24 16:14 | 53.51722 | -1.86509 | 32003 ft | 426 kts | 328° |
| 2026-04-24 16:15 | 53.59267 | -1.94395 | 32003 ft | 426 kts | 328° |
| 2026-04-24 16:16 | 53.66821 | -2.02335 | 32003 ft | 426 kts | 328° |
| 2026-04-24 16:17 | 53.79842 | -2.14071 | 32003 ft | 426 kts | 338° |
| 2026-04-24 16:18 | 53.90796 | -2.21504 | 32003 ft | 426 kts | 338° |
| 2026-04-24 16:19 | 53.99026 | -2.27158 | 32003 ft | 426 kts | 338° |
| 2026-04-24 16:20 | 54.07268 | -2.32834 | 32003 ft | 426 kts | 338° |
| 2026-04-24 16:20 | 54.15476 | -2.38511 | 32003 ft | 426 kts | 338° |
| 2026-04-24 16:21 | 54.23654 | -2.44197 | 32003 ft | 426 kts | 338° |
| 2026-04-24 16:22 | 54.29127 | -2.48017 | 32003 ft | 426 kts | 338° |
| 2026-04-24 16:22 | 54.37324 | -2.53761 | 32003 ft | 426 kts | 338° |
| 2026-04-24 16:23 | 54.42827 | -2.57629 | 32003 ft | 426 kts | 338° |
| 2026-04-24 16:24 | 54.51023 | -2.63414 | 32003 ft | 426 kts | 338° |
| 2026-04-24 16:24 | 54.56455 | -2.67261 | 32003 ft | 426 kts | 337° |
| 2026-04-24 16:25 | 54.61952 | -2.71165 | 31990 ft | 424 kts | 337° |
| 2026-04-24 16:25 | 54.64647 | -2.73082 | 31738 ft | 420 kts | 337° |
| 2026-04-24 16:25 | 54.67302 | -2.74973 | 31461 ft | 411 kts | 337° |
| 2026-04-24 16:26 | 54.72478 | -2.78672 | 30841 ft | 397 kts | 337° |
| 2026-04-24 16:26 | 54.75012 | -2.80487 | 30384 ft | 395 kts | 337° |
| 2026-04-24 16:26 | 54.80020 | -2.84084 | 29487 ft | 389 kts | 337° |
| 2026-04-24 16:27 | 54.82534 | -2.85893 | 29037 ft | 386 kts | 337° |
| 2026-04-24 16:27 | 54.84988 | -2.87660 | 28594 ft | 384 kts | 337° |
| 2026-04-24 16:27 | 54.87441 | -2.89427 | 28150 ft | 381 kts | 337° |
| 2026-04-24 16:27 | 54.89873 | -2.91180 | 27707 ft | 378 kts | 337° |
| 2026-04-24 16:28 | 54.92291 | -2.92923 | 27265 ft | 375 kts | 337° |
| 2026-04-24 16:28 | 54.94683 | -2.94652 | 26824 ft | 373 kts | 337° |
| 2026-04-24 16:28 | 54.99429 | -2.98092 | 25955 ft | 368 kts | 337° |
| 2026-04-24 16:29 | 55.01808 | -2.99819 | 25519 ft | 365 kts | 337° |
| 2026-04-24 16:29 | 55.04142 | -3.01506 | 25093 ft | 363 kts | 338° |
| 2026-04-24 16:29 | 55.08746 | -3.04845 | 24251 ft | 358 kts | 337° |
| 2026-04-24 16:30 | 55.13314 | -3.08179 | 23415 ft | 353 kts | 337° |
| 2026-04-24 16:30 | 55.15538 | -3.09806 | 23008 ft | 351 kts | 337° |
| 2026-04-24 16:30 | 55.17777 | -3.11448 | 22597 ft | 349 kts | 337° |
| 2026-04-24 16:31 | 55.20010 | -3.13088 | 22184 ft | 346 kts | 337° |
| 2026-04-24 16:31 | 55.22220 | -3.14712 | 21772 ft | 344 kts | 337° |
| 2026-04-24 16:31 | 55.24424 | -3.16335 | 21362 ft | 342 kts | 337° |
| 2026-04-24 16:31 | 55.26587 | -3.17929 | 20972 ft | 339 kts | 337° |
| 2026-04-24 16:32 | 55.28760 | -3.19533 | 20354 ft | 344 kts | 337° |
| 2026-04-24 16:32 | 55.30998 | -3.21186 | 19495 ft | 356 kts | 337° |
| 2026-04-24 16:32 | 55.33282 | -3.22877 | 18738 ft | 362 kts | 337° |
| 2026-04-24 16:32 | 55.35612 | -3.24603 | 18226 ft | 360 kts | 337° |
| 2026-04-24 16:33 | 55.37902 | -3.26301 | 17791 ft | 356 kts | 337° |
| 2026-04-24 16:33 | 55.40128 | -3.27956 | 17582 ft | 346 kts | 337° |
| 2026-04-24 16:33 | 55.42313 | -3.29582 | 17391 ft | 335 kts | 337° |
| 2026-04-24 16:33 | 55.44436 | -3.31164 | 17205 ft | 325 kts | 337° |
| 2026-04-24 16:34 | 55.46466 | -3.32677 | 17028 ft | 316 kts | 337° |
| 2026-04-24 16:34 | 55.48484 | -3.34183 | 16565 ft | 317 kts | 337° |
| 2026-04-24 16:34 | 55.50423 | -3.36011 | 15836 ft | 318 kts | 325° |
| 2026-04-24 16:34 | 55.52163 | -3.38391 | 14965 ft | 318 kts | 321° |
| 2026-04-24 16:35 | 55.53831 | -3.40866 | 14095 ft | 317 kts | 320° |
| 2026-04-24 16:35 | 55.55512 | -3.43382 | 13212 ft | 316 kts | 320° |
| 2026-04-24 16:35 | 55.57158 | -3.45833 | 12346 ft | 314 kts | 320° |
| 2026-04-24 16:35 | 55.58830 | -3.48306 | 11463 ft | 312 kts | 320° |
| 2026-04-24 16:36 | 55.60479 | -3.50738 | 10589 ft | 310 kts | 321° |
| 2026-04-24 16:36 | 55.62125 | -3.53163 | 9711 ft | 308 kts | 321° |
| 2026-04-24 16:36 | 55.63747 | -3.55553 | 8839 ft | 306 kts | 321° |
| 2026-04-24 16:36 | 55.65361 | -3.57989 | 8043 ft | 302 kts | 319° |
| 2026-04-24 16:37 | 55.66886 | -3.60352 | 7662 ft | 283 kts | 319° |
| 2026-04-24 16:37 | 55.68309 | -3.62568 | 7339 ft | 269 kts | 319° |
| 2026-04-24 16:37 | 55.69237 | -3.64007 | 7214 ft | 263 kts | 320° |
| 2026-04-24 16:37 | 55.71073 | -3.66743 | 6988 ft | 252 kts | 320° |
| 2026-04-24 16:38 | 55.72406 | -3.68701 | 6823 ft | 243 kts | 320° |
| 2026-04-24 16:38 | 55.73673 | -3.70566 | 6665 ft | 235 kts | 320° |
| 2026-04-24 16:38 | 55.74920 | -3.72405 | 6439 ft | 231 kts | 320° |
| 2026-04-24 16:38 | 55.76131 | -3.74259 | 6144 ft | 230 kts | 317° |
| 2026-04-24 16:39 | 55.77407 | -3.75964 | 5825 ft | 230 kts | 339° |
| 2026-04-24 16:39 | 55.78976 | -3.76163 | 5487 ft | 229 kts | 14° |
| 2026-04-24 16:39 | 55.80444 | -3.75184 | 5225 ft | 227 kts | 27° |
| 2026-04-24 16:39 | 55.81763 | -3.73666 | 4919 ft | 226 kts | 40° |
| 2026-04-24 16:40 | 55.82899 | -3.71716 | 4656 ft | 224 kts | 47° |
| 2026-04-24 16:40 | 55.83866 | -3.69613 | 4510 ft | 213 kts | 54° |
| 2026-04-24 16:40 | 55.84663 | -3.67609 | 4411 ft | 191 kts | 55° |
| 2026-04-24 16:40 | 55.85366 | -3.65718 | 4190 ft | 177 kts | 57° |
| 2026-04-24 16:41 | 55.85999 | -3.63921 | 3952 ft | 165 kts | 58° |
| 2026-04-24 16:41 | 55.86578 | -3.62222 | 3745 ft | 152 kts | 58° |
| 2026-04-24 16:41 | 55.87104 | -3.60663 | 3725 ft | 146 kts | 59° |
| 2026-04-24 16:41 | 55.87628 | -3.59100 | 3735 ft | 148 kts | 59° |
| 2026-04-24 16:42 | 55.88148 | -3.57551 | 3648 ft | 145 kts | 59° |
| 2026-04-24 16:42 | 55.88665 | -3.56009 | 3286 ft | 147 kts | 59° |
| 2026-04-24 16:42 | 55.89192 | -3.54442 | 2913 ft | 147 kts | 58° |
| 2026-04-24 16:42 | 55.89728 | -3.52848 | 2463 ft | 153 kts | 58° |
| 2026-04-24 16:43 | 55.90290 | -3.51183 | 1897 ft | 163 kts | 58° |
| 2026-04-24 16:43 | 55.90870 | -3.49463 | 1517 ft | 161 kts | 58° |
| 2026-04-24 16:43 | 55.91433 | -3.47795 | 1282 ft | 151 kts | 58° |
| 2026-04-24 16:43 | 55.91951 | -3.46258 | 1074 ft | 143 kts | 58° |
| 2026-04-24 16:44 | 55.92468 | -3.44730 | 897 ft | 144 kts | 58° |
| 2026-04-24 16:44 | 55.92990 | -3.43206 | 677 ft | 143 kts | 58° |
| 2026-04-24 16:44 | 55.93498 | -3.41693 | 512 ft | 144 kts | 59° |
| 2026-04-24 16:44 | 55.94014 | -3.40177 | 305 ft | 142 kts | 57° |
| 2026-04-24 16:45 | 55.94526 | -3.38660 | 153 ft | 142 kts | 59° |
| 2026-04-24 16:45 | 55.95018 | -3.37191 | 101 ft | 124 kts | 58° |
| 2026-04-24 16:45 | 55.95378 | -3.36130 | 103 ft | 60 kts | 58° |
| 2026-04-24 16:45 | 55.95500 | -3.35767 | 100 ft | 17 kts | 60° |
| 2026-04-24 16:46 | 55.95558 | -3.35574 | 100 ft | 16 kts | 81° |
| 2026-04-24 16:46 | 55.95490 | -3.35431 | 102 ft | 15 kts | 151° |
| 2026-04-24 16:46 | 55.95408 | -3.35470 | 103 ft | 14 kts | 237° |
| 2026-04-24 16:46 | 55.95346 | -3.35651 | 103 ft | 20 kts | 238° |
| 2026-04-24 16:47 | 55.95264 | -3.35894 | 104 ft | 25 kts | 238° |
| 2026-04-24 16:47 | 55.95165 | -3.36186 | 104 ft | 30 kts | 238° |
| 2026-04-24 16:47 | 55.95086 | -3.36389 | 104 ft | 12 kts | 202° |
| 2026-04-24 16:47 | 55.95005 | -3.36428 | 104 ft | 13 kts | 227° |
| 2026-04-24 16:48 | 55.94958 | -3.36569 | 104 ft | 13 kts | 239° |
| 2026-04-24 16:48 | 55.94908 | -3.36712 | 103 ft | 14 kts | 238° |
| 2026-04-24 16:48 | 55.94852 | -3.36779 | 103 ft | 9 kts | 181° |
| 2026-04-24 16:48 | 55.94848 | -3.36779 | 103 ft | 1 kts | 174° |
| 2026-04-24 16:49 | 55.94859 | -3.36781 | 103 ft | 0 kts | 171° |
| 2026-04-24 16:49 | 55.94857 | -3.36781 | 103 ft | 0 kts | 172° |
| 2026-04-24 16:50 | 55.94855 | -3.36781 | 103 ft | 0 kts | 172° |
| 2026-04-24 16:50 | 55.94852 | -3.36780 | 103 ft | 0 kts | 173° |
| 2026-04-24 16:50 | 55.94849 | -3.36780 | 103 ft | 1 kts | 175° |
| 2026-04-24 16:50 | 55.94846 | -3.36779 | 103 ft | 0 kts | 176° |
| 2026-04-24 16:53 | 55.94840 | -3.36772 | 104 ft | 3 kts | 137° |
| 2026-04-24 16:53 | 55.94836 | -3.36725 | 104 ft | 5 kts | 86° |
| 2026-04-24 16:53 | 55.94837 | -3.36659 | 104 ft | 0 kts | 89° |
| 2026-04-24 16:54 | 55.94837 | -3.36639 | 104 ft | 3 kts | 89° |
| 2026-04-24 16:54 | 55.94837 | -3.36632 | 104 ft | 0 kts | 89° |